Time;durP1;ratioP1;P1;durP2;ratioP2;P2;SDS_P1;SDS_P2;PMS_P1;PMS_P2;Temp;Humidity;BMP_temperature;BMP_pressure;BME280_temperature;BME280_humidity;BME280_pressure;Samples;Min_cycle;Max_cycle;Signal;HPM_P1;HPM_P2
2023/01/22 00:00:29;;;;;;;99.63;36.25;;;;;;;;;;6182631;23;20071;-68
2023/01/22 00:02:56;;;;;;;109.78;38.40;;;;;;;;;;6182034;23;20008;-67
2023/01/22 00:05:22;;;;;;;101.32;37.55;;;;;;;;;;6182484;23;20059;-69
2023/01/22 00:07:48;;;;;;;101.03;36.92;;;;;;;;;;6184212;23;20009;-69
2023/01/22 00:10:14;;;;;;;108.95;38.33;;;;;;;;;;6184408;23;20005;-73
2023/01/22 00:12:40;;;;;;;107.28;36.75;;;;;;;;;;6181830;23;20013;-62
2023/01/22 00:15:06;;;;;;;102.10;37.72;;;;;;;;;;6183260;23;20028;-62
2023/01/22 00:17:32;;;;;;;108.05;37.72;;;;;;;;;;6183607;23;20009;-62
2023/01/22 00:19:58;;;;;;;112.90;39.28;;;;;;;;;;6183302;23;20330;-72
2023/01/22 00:22:24;;;;;;;102.03;38.05;;;;;;;;;;6183321;23;20004;-63
2023/01/22 00:24:50;;;;;;;114.15;37.83;;;;;;;;;;6183626;23;20429;-61
2023/01/22 00:27:16;;;;;;;101.80;36.58;;;;;;;;;;6182995;23;20433;-75
2023/01/22 00:29:42;;;;;;;97.55;35.83;;;;;;;;;;6183140;23;20008;-62
2023/01/22 00:32:08;;;;;;;102.15;37.05;;;;;;;;;;6183407;23;20009;-70
2023/01/22 00:34:34;;;;;;;106.40;37.28;;;;;;;;;;6182841;23;20116;-62
2023/01/22 00:37:00;;;;;;;105.07;36.83;;;;;;;;;;6182864;23;20060;-67
2023/01/22 00:39:26;;;;;;;98.15;36.70;;;;;;;;;;6183099;23;20445;-62
2023/01/22 00:41:52;;;;;;;96.05;36.75;;;;;;;;;;6183134;23;20333;-62
2023/01/22 00:44:18;;;;;;;102.70;37.63;;;;;;;;;;6183275;23;20368;-75
2023/01/22 07:01:55;;;;;;;29.30;15.90;;;;;;;;;;6182615;23;20029;-59
2023/01/22 07:04:21;;;;;;;31.35;16.48;;;;;;;;;;6182839;23;20008;-64
2023/01/22 07:06:47;;;;;;;30.67;17.00;;;;;;;;;;6182749;23;20001;-63
2023/01/22 07:09:13;;;;;;;31.90;16.90;;;;;;;;;;6183151;23;20009;-62
2023/01/22 07:11:39;;;;;;;32.22;17.23;;;;;;;;;;6183373;23;20076;-62
2023/01/22 07:14:05;;;;;;;31.15;16.73;;;;;;;;;;6182440;23;20008;-61
2023/01/22 07:16:31;;;;;;;34.85;17.45;;;;;;;;;;6156299;23;20365;-63
2023/01/22 07:18:57;;;;;;;31.65;16.55;;;;;;;;;;6183127;23;20067;-63
2023/01/22 07:21:23;;;;;;;29.73;15.57;;;;;;;;;;6183136;23;20063;-63
2023/01/22 07:23:49;;;;;;;27.08;13.32;;;;;;;;;;6183444;23;20013;-61
2023/01/22 07:26:16;;;;;;;26.63;13.82;;;;;;;;;;6183257;23;20005;-61
2023/01/22 07:28:43;;;;;;;27.70;14.90;;;;;;;;;;6182425;23;20028;-61
2023/01/22 07:31:09;;;;;;;26.40;14.32;;;;;;;;;;6183300;23;20005;-61
2023/01/22 07:33:35;;;;;;;26.23;14.60;;;;;;;;;;6182978;23;20024;-61
2023/01/22 07:36:02;;;;;;;29.42;15.02;;;;;;;;;;6183215;23;19997;-62
2023/01/22 07:38:28;;;;;;;24.67;15.13;;;;;;;;;;6182178;23;20008;-60
2023/01/22 07:40:59;;;;;;;31.27;14.70;;;;;;;;;;6181791;23;20425;-60
2023/01/22 07:43:25;;;;;;;24.50;12.90;;;;;;;;;;6181704;23;20059;-61
2023/01/22 07:45:51;;;;;;;22.35;11.65;;;;;;;;;;6181510;23;20005;-61
2023/01/22 07:48:17;;;;;;;20.23;11.30;;;;;;;;;;6181796;23;20009;-61
2023/01/22 07:50:43;;;;;;;19.45;10.95;;;;;;;;;;6181751;23;20001;-60
2023/01/22 07:53:10;;;;;;;21.30;12.30;;;;;;;;;;6181857;23;20013;-61
2023/01/22 07:55:36;;;;;;;26.38;12.38;;;;;;;;;;6181835;23;20005;-72
2023/01/22 07:58:04;;;;;;;27.30;15.20;;;;;;;;;;6181673;23;20662;-60
2023/01/22 08:00:32;;;;;;;31.83;17.92;;;;;;;;;;6182439;23;20040;-61
2023/01/22 08:02:58;;;;;;;32.20;17.77;;;;;;;;;;6182491;23;20109;-61
2023/01/22 08:05:24;;;;;;;25.00;13.90;;;;;;;;;;6182494;23;20088;-61
2023/01/22 08:07:50;;;;;;;24.77;13.63;;;;;;;;;;6182849;23;19997;-61
2023/01/22 08:10:17;;;;;;;25.90;13.02;;;;;;;;;;6182719;23;20014;-61
2023/01/22 08:12:43;;;;;;;30.65;16.45;;;;;;;;;;6183213;23;20005;-67
2023/01/22 08:15:10;;;;;;;34.45;17.77;;;;;;;;;;6182724;23;20012;-61
2023/01/22 08:17:36;;;;;;;29.90;15.85;;;;;;;;;;6182355;23;20370;-61
2023/01/22 08:20:03;;;;;;;29.92;16.27;;;;;;;;;;6182670;23;20009;-60
2023/01/22 08:22:29;;;;;;;25.25;13.77;;;;;;;;;;6182747;23;20016;-60
2023/01/22 08:24:55;;;;;;;28.27;14.73;;;;;;;;;;6182974;23;20055;-60
2023/01/22 08:27:21;;;;;;;33.45;16.95;;;;;;;;;;6183599;23;20001;-63
2023/01/22 08:29:48;;;;;;;33.70;18.85;;;;;;;;;;6157582;23;20017;-60
2023/01/22 08:32:15;;;;;;;42.00;22.70;;;;;;;;;;6184403;23;20005;-59
2023/01/22 08:34:41;;;;;;;33.70;19.42;;;;;;;;;;6184329;23;20001;-58
2023/01/22 08:37:07;;;;;;;31.17;17.45;;;;;;;;;;6184753;23;20001;-58
2023/01/22 08:39:33;;;;;;;29.15;16.83;;;;;;;;;;6184475;23;20020;-59
2023/01/22 08:42:03;;;;;;;33.95;18.15;;;;;;;;;;6185450;23;20440;-69
2023/01/22 08:44:29;;;;;;;30.88;18.00;;;;;;;;;;6185294;23;20337;-70
2023/01/22 08:46:57;;;;;;;30.85;16.70;;;;;;;;;;6158221;23;20016;-59
2023/01/22 08:49:23;;;;;;;27.52;15.65;;;;;;;;;;6184296;23;20088;-73
2023/01/22 08:51:49;;;;;;;22.30;13.35;;;;;;;;;;6183530;23;20064;-74
2023/01/22 08:54:16;;;;;;;39.35;17.77;;;;;;;;;;6183349;23;20021;-68
2023/01/22 08:56:42;;;;;;;28.25;15.68;;;;;;;;;;6191430;23;20005;-68
2023/01/22 08:59:08;;;;;;;27.23;14.73;;;;;;;;;;6182663;23;20051;-61
2023/01/22 09:01:35;;;;;;;30.25;16.23;;;;;;;;;;6182933;23;20044;-68
2023/01/22 09:04:01;;;;;;;44.80;20.35;;;;;;;;;;6182735;23;20096;-65
2023/01/22 09:06:27;;;;;;;33.47;18.33;;;;;;;;;;6183631;23;20094;-61
2023/01/22 09:08:53;;;;;;;37.05;20.25;;;;;;;;;;6184013;23;20009;-60
2023/01/22 09:11:19;;;;;;;36.00;19.50;;;;;;;;;;6184211;23;20036;-60
2023/01/22 09:13:45;;;;;;;35.13;18.95;;;;;;;;;;6183705;23;20156;-76
2023/01/22 09:16:11;;;;;;;36.05;18.45;;;;;;;;;;6184266;23;19997;-86
2023/01/22 09:18:40;;;;;;;36.67;18.55;;;;;;;;;;6184169;23;20005;-74
2023/01/22 09:21:07;;;;;;;35.50;19.30;;;;;;;;;;6184119;23;19997;-60
2023/01/22 09:23:33;;;;;;;37.00;19.52;;;;;;;;;;6184205;23;20012;-64
2023/01/22 09:26:00;;;;;;;42.47;21.25;;;;;;;;;;6184161;23;20012;-66
2023/01/22 09:28:26;;;;;;;41.42;21.90;;;;;;;;;;6212765;23;20389;-61
2023/01/22 09:30:52;;;;;;;45.83;23.73;;;;;;;;;;6213907;23;20136;-72
2023/01/22 09:33:18;;;;;;;37.85;20.38;;;;;;;;;;6213590;23;20436;-60
2023/01/22 09:35:44;;;;;;;45.53;24.60;;;;;;;;;;6213731;23;20027;-63
2023/01/22 09:38:12;;;;;;;53.80;27.30;;;;;;;;;;6212945;23;20043;-61
2023/01/22 09:40:43;;;;;;;48.22;23.67;;;;;;;;;;6213622;23;20007;-63
2023/01/22 09:43:17;;;;;;;43.30;22.75;;;;;;;;;;6214046;23;20032;-71
2023/01/22 09:45:44;;;;;;;43.95;24.23;;;;;;;;;;6213276;23;20009;-61
2023/01/22 09:48:13;;;;;;;58.45;28.15;;;;;;;;;;6213524;23;20422;-63
2023/01/22 09:50:41;;;;;;;46.50;23.80;;;;;;;;;;6213525;23;20306;-61
2023/01/22 09:53:09;;;;;;;44.00;22.92;;;;;;;;;;6213328;23;20026;-74
2023/01/22 09:55:40;;;;;;;53.55;27.75;;;;;;;;;;6213509;23;19997;-61
2023/01/22 09:58:09;;;;;;;59.83;30.77;;;;;;;;;;6211995;23;20011;-68
2023/01/22 10:00:35;;;;;;;52.80;27.80;;;;;;;;;;6212175;23;20021;-63
2023/01/22 10:03:03;;;;;;;46.97;25.80;;;;;;;;;;6212274;23;20011;-64
2023/01/22 10:05:38;;;;;;;51.03;27.05;;;;;;;;;;6212913;23;20453;-63
2023/01/22 10:08:11;;;;;;;47.95;26.50;;;;;;;;;;6212106;23;20009;-64
2023/01/22 10:10:37;;;;;;;47.92;24.20;;;;;;;;;;6212127;23;20464;-72
2023/01/22 10:13:06;;;;;;;52.33;26.88;;;;;;;;;;6212783;23;20021;-62
2023/01/22 10:15:32;;;;;;;47.55;25.63;;;;;;;;;;6213018;23;20004;-63
2023/01/22 10:17:59;;;;;;;46.00;24.42;;;;;;;;;;6213231;23;20008;-73
2023/01/22 10:20:25;;;;;;;49.03;27.35;;;;;;;;;;6212847;23;20004;-62
2023/01/22 10:22:55;;;;;;;48.63;25.40;;;;;;;;;;6213596;23;20556;-74
2023/01/22 10:25:21;;;;;;;46.80;24.35;;;;;;;;;;6213425;23;20023;-63
2023/01/22 10:27:56;;;;;;;50.30;27.55;;;;;;;;;;6213035;23;20047;-69
2023/01/22 10:30:23;;;;;;;53.75;28.52;;;;;;;;;;6213203;23;20005;-62
2023/01/22 10:32:59;;;;;;;52.17;29.33;;;;;;;;;;6213123;23;20356;-70
2023/01/22 10:35:26;;;;;;;52.65;30.52;;;;;;;;;;6213566;23;20054;-69
2023/01/22 10:37:53;;;;;;;55.40;29.92;;;;;;;;;;6213513;23;20080;-67
2023/01/22 10:40:21;;;;;;;52.30;30.02;;;;;;;;;;6213110;23;20425;-65
2023/01/22 10:42:48;;;;;;;54.05;29.77;;;;;;;;;;6212485;23;20005;-62
2023/01/22 10:45:15;;;;;;;52.10;30.05;;;;;;;;;;6212926;23;20035;-63
2023/01/22 10:47:42;;;;;;;53.90;28.75;;;;;;;;;;6213377;23;20059;-68
2023/01/22 10:50:16;;;;;;;94.55;49.10;;;;;;;;;;6212858;23;20063;-62
2023/01/22 10:52:44;;;;;;;61.60;33.80;;;;;;;;;;6213322;23;20388;-63
2023/01/22 10:55:36;;;;;;;123.72;62.50;;;;;;;;;;6213117;23;20000;-63
2023/01/22 10:58:04;;;;;;;60.92;33.65;;;;;;;;;;6206147;23;20009;-62
2023/01/22 11:00:34;;;;;;;63.05;34.35;;;;;;;;;;6212463;23;20039;-70
2023/01/22 11:03:00;;;;;;;63.92;33.05;;;;;;;;;;6186263;23;20348;-70
2023/01/22 11:05:30;;;;;;;65.93;34.47;;;;;;;;;;6213212;23;20425;-65
2023/01/22 11:07:59;;;;;;;67.18;36.75;;;;;;;;;;6212735;23;20004;-61
2023/01/22 11:10:44;;;;;;;72.78;37.60;;;;;;;;;;6213069;23;20429;-66
2023/01/22 11:13:12;;;;;;;73.63;40.13;;;;;;;;;;6212734;23;20333;-63
2023/01/22 11:15:48;;;;;;;76.38;41.35;;;;;;;;;;6212718;23;20024;-65
2023/01/22 11:18:25;;;;;;;71.75;38.30;;;;;;;;;;6213250;23;20391;-63
2023/01/22 11:20:54;;;;;;;74.03;39.08;;;;;;;;;;6213033;23;19997;-68
2023/01/22 11:23:38;;;;;;;72.65;39.80;;;;;;;;;;6212744;23;20418;-62
2023/01/22 11:26:25;;;;;;;73.50;38.58;;;;;;;;;;6212252;23;20444;-68
2023/01/22 11:28:57;;;;;;;75.63;38.97;;;;;;;;;;6211655;23;20016;-62
2023/01/22 11:31:38;;;;;;;83.22;44.08;;;;;;;;;;6212149;23;20023;-62
2023/01/22 11:34:11;;;;;;;77.97;42.90;;;;;;;;;;6211444;23;20017;-67
2023/01/22 11:36:45;;;;;;;88.97;46.72;;;;;;;;;;6211097;23;19996;-62
2023/01/22 11:39:11;;;;;;;83.40;45.20;;;;;;;;;;6211503;23;20005;-62
2023/01/22 11:41:40;;;;;;;81.97;44.95;;;;;;;;;;6211490;23;20326;-69
2023/01/22 11:44:12;;;;;;;72.45;39.20;;;;;;;;;;6211072;23;20001;-62
2023/01/22 11:47:04;;;;;;;79.93;44.03;;;;;;;;;;6211514;23;20001;-70
2023/01/22 11:49:33;;;;;;;86.75;46.03;;;;;;;;;;6061449;23;19999;-62
2023/01/22 11:52:10;;;;;;;77.05;41.63;;;;;;;;;;6061381;23;20071;-62
2023/01/22 11:54:36;;;;;;;68.18;37.83;;;;;;;;;;6061331;23;20023;-69
2023/01/22 11:57:02;;;;;;;71.90;37.85;;;;;;;;;;6061197;23;20010;-62
2023/01/22 11:59:36;;;;;;;70.32;39.05;;;;;;;;;;6060967;23;20466;-66
2023/01/22 12:02:20;;;;;;;73.68;39.75;;;;;;;;;;6061398;23;20062;-62
2023/01/22 12:04:49;;;;;;;84.38;44.03;;;;;;;;;;6063222;23;20010;-65
2023/01/22 12:07:34;;;;;;;72.00;38.05;;;;;;;;;;6062826;23;20033;-60
2023/01/22 12:10:18;;;;;;;63.45;33.05;;;;;;;;;;6063041;23;20066;-60
2023/01/22 12:13:07;;;;;;;89.60;42.65;;;;;;;;;;6062890;23;20726;-61
2023/01/22 12:15:44;;;;;;;62.10;31.65;;;;;;;;;;6062179;23;20086;-66
2023/01/22 12:18:10;;;;;;;62.00;33.08;;;;;;;;;;6063204;23;20011;-61
2023/01/22 12:20:45;;;;;;;63.00;33.67;;;;;;;;;;6062538;23;20007;-61
2023/01/22 12:23:37;;;;;;;68.35;36.38;;;;;;;;;;6062701;23;20094;-61
2023/01/22 12:26:08;;;;;;;70.10;37.95;;;;;;;;;;6119176;23;20055;-61
2023/01/22 12:28:40;;;;;;;67.18;37.08;;;;;;;;;;6213555;23;20008;-61
2023/01/22 12:31:10;;;;;;;71.47;39.00;;;;;;;;;;6212993;23;20008;-64
2023/01/22 12:33:39;;;;;;;81.20;41.17;;;;;;;;;;6212770;23;20341;-60
2023/01/22 12:36:08;;;;;;;97.95;47.10;;;;;;;;;;6213305;23;20027;-61
2023/01/22 12:38:40;;;;;;;104.50;51.33;;;;;;;;;;6213231;23;20008;-57
2023/01/22 12:41:12;;;;;;;79.78;40.35;;;;;;;;;;6212996;23;20335;-58
2023/01/22 12:43:51;;;;;;;72.35;39.60;;;;;;;;;;6213173;23;20415;-58
2023/01/22 12:46:20;;;;;;;90.55;46.50;;;;;;;;;;6212996;23;20384;-66
2023/01/22 12:48:46;;;;;;;64.25;35.05;;;;;;;;;;6213182;23;20000;-58
2023/01/22 12:51:41;;;;;;;72.10;38.63;;;;;;;;;;6213420;23;20005;-57
2023/01/22 12:54:19;;;;;;;73.70;40.40;;;;;;;;;;6064128;23;20019;-70
2023/01/22 12:56:46;;;;;;;63.60;34.88;;;;;;;;;;6064071;23;20058;-57
2023/01/22 12:59:47;;;;;;;61.13;32.50;;;;;;;;;;6063157;23;20396;-58
2023/01/22 13:02:21;;;;;;;65.53;33.38;;;;;;;;;;5978756;24;20024;-59
2023/01/22 13:04:47;;;;;;;55.58;31.35;;;;;;;;;;5977887;24;20039;-58
2023/01/22 13:07:28;;;;;;;64.80;35.58;;;;;;;;;;5977608;24;20016;-59
2023/01/22 13:10:06;;;;;;;65.57;31.85;;;;;;;;;;5977297;24;20439;-59
2023/01/22 13:12:48;;;;;;;56.30;32.00;;;;;;;;;;5977482;24;20129;-58
2023/01/22 13:15:20;;;;;;;72.43;40.65;;;;;;;;;;5977676;24;20016;-59
2023/01/22 13:17:53;;;;;;;94.05;49.22;;;;;;;;;;5978442;24;20052;-58
2023/01/22 13:20:20;;;;;;;89.43;47.83;;;;;;;;;;5978628;24;20012;-57
2023/01/22 13:22:46;;;;;;;95.22;51.53;;;;;;;;;;5977763;23;20013;-58
2023/01/22 13:25:22;;;;;;;56.45;30.75;;;;;;;;;;5977287;24;20012;-64
2023/01/22 13:27:48;;;;;;;61.95;34.78;;;;;;;;;;5977297;24;20004;-72
2023/01/22 13:30:20;;;;;;;61.95;34.10;;;;;;;;;;5999321;23;20091;-60
2023/01/22 13:32:46;;;;;;;68.72;37.63;;;;;;;;;;6062184;23;20014;-59
2023/01/22 13:35:13;;;;;;;64.68;35.58;;;;;;;;;;6074442;23;20014;-59
2023/01/22 13:37:40;;;;;;;63.45;35.05;;;;;;;;;;6212837;23;20012;-59
2023/01/22 13:40:30;;;;;;;66.28;35.40;;;;;;;;;;6212818;23;20433;-59
2023/01/22 13:42:57;;;;;;;66.30;35.10;;;;;;;;;;6062490;23;20002;-65
2023/01/22 13:45:28;;;;;;;66.15;35.63;;;;;;;;;;6062550;23;20014;-58
2023/01/22 13:47:59;;;;;;;64.07;35.33;;;;;;;;;;6061925;23;20011;-73
2023/01/22 13:50:27;;;;;;;67.38;37.00;;;;;;;;;;6062399;23;20006;-66
2023/01/22 13:52:53;;;;;;;68.43;35.92;;;;;;;;;;6062389;23;20042;-58
2023/01/22 13:55:21;;;;;;;62.97;33.55;;;;;;;;;;6062543;23;20006;-62
2023/01/22 13:57:57;;;;;;;75.45;38.95;;;;;;;;;;6062030;23;20015;-61
2023/01/22 14:00:23;;;;;;;71.53;37.75;;;;;;;;;;6061746;23;20019;-67
2023/01/22 14:02:49;;;;;;;71.53;38.20;;;;;;;;;;6061739;23;20007;-68
2023/01/22 14:05:20;;;;;;;81.35;41.65;;;;;;;;;;6062324;23;20018;-62
2023/01/22 14:07:46;;;;;;;71.05;38.58;;;;;;;;;;6062277;23;20006;-65
2023/01/22 14:10:17;;;;;;;81.57;41.97;;;;;;;;;;6061955;23;20035;-65
2023/01/22 14:12:43;;;;;;;72.25;38.58;;;;;;;;;;6062250;23;20011;-63
2023/01/22 14:15:16;;;;;;;85.03;42.72;;;;;;;;;;6061720;23;20018;-69
2023/01/22 14:17:42;;;;;;;77.45;39.05;;;;;;;;;;6061671;23;20013;-65
2023/01/22 14:20:08;;;;;;;86.30;43.28;;;;;;;;;;6145747;23;20083;-67
2023/01/22 14:22:34;;;;;;;100.78;51.10;;;;;;;;;;6212355;23;19996;-60
2023/01/22 14:25:00;;;;;;;85.90;43.75;;;;;;;;;;6212154;23;20008;-66
2023/01/22 14:27:47;;;;;;;86.18;43.20;;;;;;;;;;6212212;23;20366;-61
2023/01/22 14:30:14;;;;;;;85.32;43.28;;;;;;;;;;6212158;23;20090;-72
2023/01/22 14:32:44;;;;;;;109.47;54.45;;;;;;;;;;6211970;23;20001;-63
2023/01/22 14:35:17;;;;;;;99.97;51.22;;;;;;;;;;6212189;23;20001;-62
2023/01/22 14:37:43;;;;;;;96.57;47.83;;;;;;;;;;6211821;23;20034;-69
2023/01/22 14:40:12;;;;;;;94.65;46.67;;;;;;;;;;6212244;23;20421;-62
2023/01/22 14:42:38;;;;;;;79.88;39.80;;;;;;;;;;6212178;23;20001;-62
2023/01/22 14:45:04;;;;;;;80.63;40.50;;;;;;;;;;6212040;23;20020;-63
2023/01/22 14:47:30;;;;;;;85.25;43.95;;;;;;;;;;6212745;23;20005;-64
2023/01/22 14:49:56;;;;;;;76.95;40.00;;;;;;;;;;6213315;23;20005;-70
2023/01/22 14:52:22;;;;;;;85.93;44.03;;;;;;;;;;6212460;23;20005;-67
2023/01/22 14:54:49;;;;;;;78.93;40.22;;;;;;;;;;6212704;23;20088;-63
2023/01/22 14:57:15;;;;;;;84.05;40.95;;;;;;;;;;6212884;23;20001;-68
2023/01/22 14:59:42;;;;;;;102.82;47.55;;;;;;;;;;6213208;23;20084;-72
2023/01/22 15:02:09;;;;;;;106.53;50.00;;;;;;;;;;6212809;23;20017;-64
2023/01/22 15:04:38;;;;;;;96.82;47.92;;;;;;;;;;6185610;23;20369;-63
2023/01/22 15:07:04;;;;;;;92.57;43.50;;;;;;;;;;6213186;23;20075;-63
2023/01/22 15:09:30;;;;;;;78.55;39.55;;;;;;;;;;6212813;23;20001;-64
2023/01/22 15:11:56;;;;;;;88.57;42.58;;;;;;;;;;6212543;23;20004;-67
2023/01/22 15:14:22;;;;;;;89.80;44.20;;;;;;;;;;6212773;23;20020;-70
2023/01/22 15:16:48;;;;;;;81.47;40.30;;;;;;;;;;6212669;23;19997;-68
2023/01/22 15:19:14;;;;;;;81.75;40.80;;;;;;;;;;6212944;23;20019;-64
2023/01/22 15:21:40;;;;;;;76.30;37.60;;;;;;;;;;6212661;23;20001;-65
2023/01/22 15:24:06;;;;;;;80.63;40.70;;;;;;;;;;6212941;23;20115;-64
2023/01/22 15:26:36;;;;;;;77.05;38.53;;;;;;;;;;6212802;23;20317;-66
2023/01/22 15:29:10;;;;;;;87.05;39.97;;;;;;;;;;6212112;23;20040;-63
2023/01/22 15:31:36;;;;;;;75.80;38.30;;;;;;;;;;6211591;23;20012;-64
2023/01/22 15:34:03;;;;;;;80.55;39.95;;;;;;;;;;6212776;23;20017;-66
2023/01/22 15:36:30;;;;;;;88.93;42.22;;;;;;;;;;6212794;23;20000;-62
2023/01/22 15:38:56;;;;;;;87.97;42.20;;;;;;;;;;6212472;23;20413;-66
2023/01/22 15:41:23;;;;;;;88.30;41.10;;;;;;;;;;6212699;23;20353;-63
2023/01/22 15:43:49;;;;;;;115.32;52.53;;;;;;;;;;6212410;23;20434;-64
2023/01/22 15:46:16;;;;;;;95.43;46.17;;;;;;;;;;6211980;23;20001;-69
2023/01/22 15:48:43;;;;;;;92.28;46.38;;;;;;;;;;6211343;23;20310;-63
2023/01/22 15:51:10;;;;;;;92.93;44.90;;;;;;;;;;6212639;23;20008;-64
2023/01/22 15:53:36;;;;;;;98.22;45.13;;;;;;;;;;6212463;23;20376;-67
2023/01/22 15:56:02;;;;;;;90.63;42.63;;;;;;;;;;6212146;23;20406;-63
2023/01/22 15:58:28;;;;;;;91.05;43.28;;;;;;;;;;6212719;23;20071;-63
2023/01/22 16:00:54;;;;;;;100.75;44.92;;;;;;;;;;6212095;23;20023;-64
2023/01/22 16:03:20;;;;;;;102.47;45.50;;;;;;;;;;6212762;23;20000;-63
2023/01/22 16:05:46;;;;;;;111.22;48.25;;;;;;;;;;6213253;23;19997;-63
2023/01/22 16:08:12;;;;;;;111.00;51.30;;;;;;;;;;6212851;23;20429;-64
2023/01/22 16:10:38;;;;;;;100.25;48.97;;;;;;;;;;6212312;23;20486;-64
2023/01/22 16:13:04;;;;;;;109.05;49.00;;;;;;;;;;6212757;23;20045;-71
2023/01/22 16:15:31;;;;;;;101.30;46.70;;;;;;;;;;6212251;23;20012;-68
2023/01/22 16:17:59;;;;;;;99.00;46.55;;;;;;;;;;6212337;23;19997;-74
2023/01/22 16:20:25;;;;;;;113.65;53.78;;;;;;;;;;6212835;23;20004;-65
2023/01/22 16:22:51;;;;;;;108.65;51.45;;;;;;;;;;6213094;23;20004;-64
2023/01/22 16:25:17;;;;;;;104.60;47.60;;;;;;;;;;6211925;23;20064;-64
2023/01/22 16:27:43;;;;;;;122.28;52.58;;;;;;;;;;6212439;23;20379;-66
2023/01/22 16:30:10;;;;;;;107.75;50.97;;;;;;;;;;6212301;23;20009;-65
2023/01/22 16:32:41;;;;;;;114.80;53.33;;;;;;;;;;6212202;23;20001;-63
2023/01/22 16:35:07;;;;;;;105.32;48.17;;;;;;;;;;6185261;23;20009;-68
2023/01/22 16:37:34;;;;;;;102.78;47.03;;;;;;;;;;6212349;23;20504;-66
2023/01/22 16:40:00;;;;;;;100.00;45.45;;;;;;;;;;6212425;23;20001;-67
2023/01/22 16:42:26;;;;;;;99.00;47.22;;;;;;;;;;6212195;23;20004;-65
2023/01/22 16:44:52;;;;;;;103.35;47.53;;;;;;;;;;6212586;23;20005;-64
2023/01/22 16:47:19;;;;;;;103.55;47.85;;;;;;;;;;6212586;23;20008;-64
2023/01/22 16:49:45;;;;;;;110.97;50.03;;;;;;;;;;6213603;23;19997;-71
2023/01/22 16:52:11;;;;;;;111.95;49.85;;;;;;;;;;6214414;23;20015;-62
2023/01/22 16:54:38;;;;;;;120.22;49.78;;;;;;;;;;6213247;23;20013;-66
2023/01/22 16:57:05;;;;;;;116.32;51.03;;;;;;;;;;6213218;23;20035;-62
2023/01/22 16:59:32;;;;;;;121.40;52.72;;;;;;;;;;6213459;23;20325;-72
2023/01/22 17:01:59;;;;;;;130.05;50.25;;;;;;;;;;6213795;23;20009;-63
2023/01/22 17:04:26;;;;;;;132.60;51.03;;;;;;;;;;6213170;23;20433;-70
2023/01/22 17:06:53;;;;;;;125.97;50.42;;;;;;;;;;6213064;23;20000;-73
2023/01/22 17:09:21;;;;;;;145.38;56.22;;;;;;;;;;6213338;23;20001;-65
2023/01/22 17:11:51;;;;;;;147.63;58.97;;;;;;;;;;6212803;23;20357;-70
2023/01/22 17:14:18;;;;;;;152.75;59.83;;;;;;;;;;6212747;23;20020;-70
2023/01/22 17:16:44;;;;;;;172.25;62.58;;;;;;;;;;6212981;23;20457;-71
2023/01/22 17:19:10;;;;;;;159.63;60.63;;;;;;;;;;6213058;23;20329;-66
2023/01/22 17:21:36;;;;;;;160.95;62.03;;;;;;;;;;6211703;23;20013;-72
2023/01/22 17:24:03;;;;;;;160.52;59.00;;;;;;;;;;6212621;23;20126;-70
2023/01/22 17:26:30;;;;;;;181.50;69.00;;;;;;;;;;6213065;23;20011;-67
2023/01/22 17:28:56;;;;;;;152.10;56.78;;;;;;;;;;6212764;23;20372;-72
2023/01/22 17:31:23;;;;;;;165.60;60.10;;;;;;;;;;6211616;23;20016;-65
2023/01/22 17:33:49;;;;;;;161.60;61.78;;;;;;;;;;6211918;23;20452;-65
2023/01/22 17:36:17;;;;;;;175.43;63.83;;;;;;;;;;6212657;23;20373;-72
2023/01/22 17:38:43;;;;;;;155.27;57.80;;;;;;;;;;6212848;23;20012;-76
2023/01/22 17:41:09;;;;;;;146.80;57.83;;;;;;;;;;6212498;23;20027;-63
2023/01/22 17:43:37;;;;;;;160.32;58.13;;;;;;;;;;6212469;23;20007;-64
2023/01/22 17:46:06;;;;;;;149.98;53.85;;;;;;;;;;6211766;23;20020;-71
2023/01/22 17:48:34;;;;;;;150.52;56.40;;;;;;;;;;6210548;23;20075;-73
2023/01/22 17:51:08;;;;;;;154.88;56.67;;;;;;;;;;6210597;23;20004;-74
2023/01/22 17:53:37;;;;;;;162.77;60.20;;;;;;;;;;6211031;23;20052;-74
2023/01/22 17:56:11;;;;;;;162.10;61.67;;;;;;;;;;6211400;23;20004;-64
2023/01/22 17:58:39;;;;;;;163.80;57.70;;;;;;;;;;6210733;23;20444;-66
2023/01/22 18:01:06;;;;;;;157.30;53.45;;;;;;;;;;6208800;23;20051;-67
2023/01/22 18:03:33;;;;;;;146.70;53.17;;;;;;;;;;6210725;23;20059;-70
2023/01/22 18:05:59;;;;;;;146.93;50.13;;;;;;;;;;6210916;23;20412;-67
2023/01/22 18:08:28;;;;;;;162.05;59.50;;;;;;;;;;6209630;23;20332;-72
2023/01/22 18:10:54;;;;;;;151.20;56.30;;;;;;;;;;6183326;23;20337;-66
2023/01/22 18:13:20;;;;;;;167.75;58.60;;;;;;;;;;6184200;23;20389;-72
2023/01/22 18:15:46;;;;;;;163.02;58.38;;;;;;;;;;6211643;23;20032;-74
2023/01/22 18:18:13;;;;;;;160.40;59.83;;;;;;;;;;6210942;23;20043;-63
2023/01/22 18:20:42;;;;;;;154.68;56.97;;;;;;;;;;6211432;23;20005;-72
2023/01/22 18:23:08;;;;;;;156.57;58.25;;;;;;;;;;6211467;23;20024;-65
2023/01/22 18:25:39;;;;;;;159.77;58.60;;;;;;;;;;6210675;23;20004;-71
2023/01/22 18:28:09;;;;;;;126.53;48.80;;;;;;;;;;6211230;23;20059;-73
2023/01/22 18:30:35;;;;;;;141.60;53.15;;;;;;;;;;6183613;23;20020;-70
2023/01/22 18:33:01;;;;;;;138.82;52.92;;;;;;;;;;6210427;23;20016;-69
2023/01/22 18:35:28;;;;;;;143.25;52.72;;;;;;;;;;6210780;23;20031;-69
2023/01/22 18:37:56;;;;;;;135.27;51.40;;;;;;;;;;6210881;23;20357;-75
2023/01/22 18:40:23;;;;;;;140.55;52.28;;;;;;;;;;6213613;23;20007;-81
2023/01/22 18:42:49;;;;;;;144.25;54.25;;;;;;;;;;6212331;23;20011;-76
2023/01/22 18:45:16;;;;;;;145.23;52.60;;;;;;;;;;6212493;23;20011;-69
2023/01/22 18:47:42;;;;;;;144.30;52.88;;;;;;;;;;6212192;23;20056;-70
2023/01/22 18:50:10;;;;;;;148.05;56.40;;;;;;;;;;6212751;23;20028;-84
2023/01/22 18:52:36;;;;;;;141.15;52.90;;;;;;;;;;6217027;23;20008;-85
2023/01/22 18:55:03;;;;;;;131.85;50.05;;;;;;;;;;6212311;23;20313;-82
2023/01/22 18:57:34;;;;;;;142.18;53.63;;;;;;;;;;6210761;23;20368;-69
2023/01/22 19:00:00;;;;;;;135.18;53.47;;;;;;;;;;6211147;23;20017;-64
2023/01/22 19:02:26;;;;;;;134.07;51.05;;;;;;;;;;6212429;23;20004;-64
2023/01/22 19:04:52;;;;;;;121.13;47.92;;;;;;;;;;6212289;23;20039;-71
2023/01/22 19:07:18;;;;;;;129.10;48.53;;;;;;;;;;6211683;23;20059;-69
2023/01/22 19:09:45;;;;;;;136.27;51.38;;;;;;;;;;6211622;23;20000;-73
2023/01/22 19:12:12;;;;;;;131.38;50.05;;;;;;;;;;6212155;23;20080;-75
2023/01/22 19:14:38;;;;;;;129.25;48.72;;;;;;;;;;6212977;23;20013;-69
2023/01/22 19:17:05;;;;;;;137.02;50.97;;;;;;;;;;6212781;23;20044;-67
2023/01/22 19:19:31;;;;;;;127.97;49.78;;;;;;;;;;6168149;23;20032;-65
2023/01/22 19:21:58;;;;;;;134.90;48.95;;;;;;;;;;6205998;23;20001;-75
2023/01/22 19:24:27;;;;;;;140.55;53.25;;;;;;;;;;6212727;23;20008;-64
2023/01/22 19:26:53;;;;;;;140.57;52.38;;;;;;;;;;6213003;23;20461;-70
2023/01/22 19:29:22;;;;;;;149.68;51.65;;;;;;;;;;6211475;23;20059;-64
2023/01/22 19:31:52;;;;;;;160.57;57.75;;;;;;;;;;6211546;23;20000;-67
2023/01/22 19:34:22;;;;;;;125.03;46.75;;;;;;;;;;6210862;23;20013;-65
2023/01/22 19:36:52;;;;;;;128.93;46.28;;;;;;;;;;6211316;23;20005;-64
2023/01/22 19:39:19;;;;;;;180.80;56.58;;;;;;;;;;6212169;23;20123;-66
2023/01/22 19:41:45;;;;;;;155.18;55.75;;;;;;;;;;6211205;23;20031;-65
2023/01/22 19:44:11;;;;;;;143.02;53.75;;;;;;;;;;6210925;23;20370;-68
2023/01/22 19:46:38;;;;;;;135.48;49.65;;;;;;;;;;6210869;23;20027;-77
2023/01/22 19:49:04;;;;;;;133.30;50.28;;;;;;;;;;6211008;23;20011;-67
2023/01/22 19:51:30;;;;;;;126.93;46.22;;;;;;;;;;6211279;23;20004;-65
2023/01/22 19:53:59;;;;;;;132.90;44.20;;;;;;;;;;6212045;23;20012;-65
2023/01/22 19:56:26;;;;;;;131.88;44.72;;;;;;;;;;6212443;23;19997;-64
2023/01/22 19:58:55;;;;;;;123.60;46.25;;;;;;;;;;6211064;23;20000;-65
2023/01/22 20:01:21;;;;;;;154.27;47.25;;;;;;;;;;6210623;23;20017;-64
2023/01/22 20:03:48;;;;;;;130.13;45.30;;;;;;;;;;6210547;23;20009;-65
2023/01/22 20:06:15;;;;;;;178.50;42.00;;;;;;;;;;6211116;23;20430;-71
2023/01/22 20:08:41;;;;;;;251.80;51.83;;;;;;;;;;6211506;23;20004;-78
2023/01/22 20:11:08;;;;;;;144.50;45.60;;;;;;;;;;6211481;23;20079;-65
2023/01/22 20:13:35;;;;;;;288.00;38.67;;;;;;;;;;6211529;23;20047;-64
2023/01/22 20:16:01;;;;;;;141.52;43.00;;;;;;;;;;6211598;23;19997;-65
2023/01/22 20:18:28;;;;;;;146.32;43.80;;;;;;;;;;6211669;23;20063;-75
2023/01/22 20:20:58;;;;;;;392.23;47.75;;;;;;;;;;6211191;23;20009;-68
2023/01/22 20:23:25;;;;;;;393.73;46.85;;;;;;;;;;6211923;23;20008;-71
2023/01/22 20:25:51;;;;;;;326.27;41.15;;;;;;;;;;6213564;23;20004;-64
2023/01/22 20:28:18;;;;;;;126.15;38.55;;;;;;;;;;6213178;23;20004;-75
2023/01/22 20:30:44;;;;;;;355.35;42.92;;;;;;;;;;6212732;23;20016;-66
2023/01/22 20:33:10;;;;;;;188.65;36.50;;;;;;;;;;6213273;23;20140;-64